Bogard, Indiana
Current Conditions -  °F | °C
As of 11:35 PM on Thursday 27 Nov 2014 (Local Time) from KDCY Reporting Station
Clear Clear  
Wind Chill: 22°   Ceiling: Unl
Heat Index: 22°   Visibility: 10mi
Dew Point: 19°   Wind: 3mph
Humidity: 90%   Direction: 350°N
Pressure: 30.44"   Gusts: NA
Location:  38.7791°N, 87.1828°W
Report Text: KDCY 280535Z AUTO 35003KT 10SM CLR M06/M07 A3044 RMK AO2 T10561070
Loading
Personal Weather Stations






























Interactive Weather Map New forecast layout! Learn more

10-Day Weather Forecast

Advertisements
Track Severe Weather on mobile